Darstellungsparameter: Aktuell verwendete Einstellungen:
Skalierung der Graphiken ... ?
xyx+y,   Skalierungsfaktor:      Skalierung: Modus: x, Faktor: 1
Darstellungszeitraum ... ?
Vom - - bis: - -   Zeitraum: 23.01.2021 - 23.01.2021
Min/Max/Avg-Anzeige ... ?
Zeige MMA aktuell
Zeige MMA Monat
Zeige MMA alles
Zeige --A aktuell
Zeige --A Monat
Zeige --A alles
Keine MMA-Anzeige
MMA:
Keine MMA-Graphiken
MMA-Basis: 23.01.2021 - 23.01.2021
Quicknavigation für Darstellung... ?
Tage:      1T, 2T, 3T, 5T -1T -2T -3T -5T +1T +2T +3T +5T
Wochen: 1W, 2W, 3W -1W -2W -3W +1W +2W +3W
Monate: 1M, 3M, 6M -1M -3M -6M +1M +3M +6M
Jahre:    1J, 3J, 5J, 10J -1J -3J -5J -10J +1J +3J +5J +10J
Nutze für die Darstellung ... ?
Originaldaten oder Mittelwerte auf ...
Stundenbasis Tagesbasis Wochenbasis
Monatsbasis Jahresbasis      Datenbasis: Original-Daten
Darstellen als:
Statistik (Auto) Statistik J:M      Darstellung:

Der gewünschte Datumsbereich war nicht gültig/verfügbar und wurde korrigiert....
Das angegebene Enddatum (14.08.2029 23:59:59) liegt in der Zukunft.
Das angegebene Startdatum (14.08.2029 00:00:00) liegt in der Zukunft.


Zur Graphik,    zurück zur Übersicht aller Sensoren.
 
Tabellarische Datenbersicht: ?
 
Sensor: Nr:Datum:Temp:Feuchte:Taupunkt:
Aussen-T/F 1 23-01-2021 01:00:00 2.6 C 96 % 2.03 C
2 23-01-2021 01:05:00 2.6 C 96 % 2.03 C
3 23-01-2021 01:10:00 2.6 C 96 % 2.03 C
4 23-01-2021 01:15:00 2.6 C 96 % 2.03 C
5 23-01-2021 01:20:00 2.6 C 96 % 2.03 C
6 23-01-2021 01:25:00 2.5 C 96 % 1.93 C
7 23-01-2021 01:30:00 2.4 C 96 % 1.83 C
8 23-01-2021 01:35:00 2.4 C 96 % 1.83 C
9 23-01-2021 01:40:00 2.4 C 96 % 1.83 C
10 23-01-2021 01:45:00 2.4 C 96 % 1.83 C
11 23-01-2021 01:50:00 2.4 C 96 % 1.83 C
12 23-01-2021 01:55:00 2.4 C 96 % 1.83 C
13 23-01-2021 02:00:00 2.4 C 96 % 1.83 C
14 23-01-2021 02:05:00 2.4 C 96 % 1.83 C
15 23-01-2021 02:10:00 2.4 C 96 % 1.83 C
16 23-01-2021 02:15:00 2.3 C 96 % 1.73 C
17 23-01-2021 02:20:00 2.3 C 96 % 1.73 C
18 23-01-2021 02:25:00 2.3 C 96 % 1.73 C
19 23-01-2021 02:30:00 2.3 C 96 % 1.73 C
20 23-01-2021 02:35:00 2.2 C 96 % 1.63 C
21 23-01-2021 02:40:00 2.3 C 96 % 1.73 C
22 23-01-2021 02:45:00 2.3 C 96 % 1.73 C
23 23-01-2021 02:50:00 2.3 C 96 % 1.73 C
24 23-01-2021 02:55:00 2.3 C 96 % 1.73 C
25 23-01-2021 03:00:00 2.3 C 96 % 1.73 C
Sensor: Nr:Datum:Temp:Feuchte:Taupunkt:
Aussen-T/F 26 23-01-2021 03:05:00 2.3 C 96 % 1.73 C
27 23-01-2021 03:10:00 2.3 C 96 % 1.73 C
28 23-01-2021 03:15:00 2.3 C 96 % 1.73 C
29 23-01-2021 03:20:00 2.2 C 96 % 1.63 C
30 23-01-2021 03:25:00 2.3 C 96 % 1.73 C
31 23-01-2021 03:30:00 2.3 C 96 % 1.73 C
32 23-01-2021 03:35:00 2.3 C 96 % 1.73 C
33 23-01-2021 03:40:00 2.4 C 96 % 1.83 C
34 23-01-2021 03:45:00 2.5 C 97 % 2.07 C
35 23-01-2021 03:50:00 2.5 C 96 % 1.93 C
36 23-01-2021 03:55:00 2.5 C 96 % 1.93 C
37 23-01-2021 04:00:00 2.5 C 96 % 1.93 C
38 23-01-2021 04:05:00 2.4 C 96 % 1.83 C
39 23-01-2021 04:10:00 2.5 C 96 % 1.93 C
40 23-01-2021 04:15:00 2.5 C 96 % 1.93 C
41 23-01-2021 04:20:00 2.6 C 96 % 2.03 C
42 23-01-2021 04:25:00 2.6 C 96 % 2.03 C
43 23-01-2021 04:30:00 2.6 C 96 % 2.03 C
44 23-01-2021 04:35:00 2.7 C 96 % 2.13 C
45 23-01-2021 04:40:00 2.7 C 96 % 2.13 C
46 23-01-2021 04:45:00 2.7 C 96 % 2.13 C
47 23-01-2021 04:50:00 2.7 C 96 % 2.13 C
48 23-01-2021 04:55:00 2.8 C 96 % 2.23 C
49 23-01-2021 05:00:00 2.8 C 96 % 2.23 C
50 23-01-2021 05:05:00 2.9 C 96 % 2.33 C
Sensor: Nr:Datum:Temp:Feuchte:Taupunkt:
Aussen-T/F 51 23-01-2021 05:10:00 2.9 C 96 % 2.33 C
52 23-01-2021 05:15:00 2.9 C 96 % 2.33 C
53 23-01-2021 05:20:00 3 C 96 % 2.43 C
54 23-01-2021 05:25:00 3.1 C 96 % 2.53 C
55 23-01-2021 05:30:00 3.1 C 96 % 2.53 C
56 23-01-2021 05:35:00 3.1 C 96 % 2.53 C
57 23-01-2021 05:40:00 3.1 C 95 % 2.38 C
58 23-01-2021 05:45:00 3.1 C 96 % 2.53 C
59 23-01-2021 05:50:00 3.1 C 95 % 2.38 C
60 23-01-2021 05:55:00 3 C 95 % 2.28 C
61 23-01-2021 06:00:00 2.9 C 95 % 2.18 C
62 23-01-2021 06:05:00 2.8 C 95 % 2.08 C
63 23-01-2021 06:10:00 2.8 C 95 % 2.08 C
64 23-01-2021 06:15:00 2.7 C 95 % 1.98 C
65 23-01-2021 06:20:00 2.7 C 95 % 1.98 C
66 23-01-2021 06:25:00 2.7 C 95 % 1.98 C
67 23-01-2021 06:30:00 2.8 C 96 % 2.23 C
68 23-01-2021 06:35:00 2.9 C 96 % 2.33 C
69 23-01-2021 06:40:00 3.1 C 96 % 2.53 C
70 23-01-2021 06:45:00 3.1 C 95 % 2.38 C
71 23-01-2021 06:50:00 3.2 C 96 % 2.63 C
72 23-01-2021 06:55:00 3.2 C 95 % 2.48 C
73 23-01-2021 07:00:00 3.2 C 95 % 2.48 C
74 23-01-2021 07:05:00 3.2 C 95 % 2.48 C
75 23-01-2021 07:10:00 3.2 C 95 % 2.48 C
Sensor: Nr:Datum:Temp:Feuchte:Taupunkt:
Aussen-T/F 76 23-01-2021 07:15:00 3.2 C 95 % 2.48 C
77 23-01-2021 07:20:00 3.2 C 95 % 2.48 C
78 23-01-2021 07:25:00 3.2 C 95 % 2.48 C
79 23-01-2021 07:30:00 3.2 C 95 % 2.48 C
80 23-01-2021 07:35:00 3.2 C 95 % 2.48 C
81 23-01-2021 07:40:00 3.2 C 95 % 2.48 C
82 23-01-2021 07:45:00 3.2 C 95 % 2.48 C
83 23-01-2021 07:50:00 3.2 C 95 % 2.48 C
84 23-01-2021 07:55:00 3.2 C 95 % 2.48 C
85 23-01-2021 08:00:00 3.2 C 95 % 2.48 C
86 23-01-2021 08:05:00 3.2 C 96 % 2.63 C
87 23-01-2021 08:10:00 3.2 C 96 % 2.63 C
88 23-01-2021 08:15:00 3.2 C 96 % 2.63 C
89 23-01-2021 08:20:00 3.2 C 96 % 2.63 C
90 23-01-2021 08:25:00 3.2 C 95 % 2.48 C
91 23-01-2021 08:30:00 3.3 C 95 % 2.58 C
92 23-01-2021 08:35:00 3.3 C 95 % 2.58 C
93 23-01-2021 08:40:00 3.3 C 95 % 2.58 C
94 23-01-2021 08:45:00 3.4 C 95 % 2.68 C
95 23-01-2021 08:50:00 3.4 C 95 % 2.68 C
96 23-01-2021 08:55:00 3.5 C 95 % 2.78 C
97 23-01-2021 09:00:00 3.6 C 95 % 2.88 C
98 23-01-2021 09:05:00 3.6 C 95 % 2.88 C
99 23-01-2021 09:10:00 3.6 C 95 % 2.88 C
100 23-01-2021 09:15:00 3.7 C 95 % 2.98 C
Sensor: Nr:Datum:Temp:Feuchte:Taupunkt:
Aussen-T/F 101 23-01-2021 09:20:00 3.7 C 95 % 2.98 C
102 23-01-2021 09:25:00 3.7 C 95 % 2.98 C
103 23-01-2021 09:30:00 3.7 C 95 % 2.98 C
104 23-01-2021 09:35:00 3.8 C 95 % 3.07 C
105 23-01-2021 09:40:00 3.8 C 95 % 3.07 C
106 23-01-2021 09:45:00 3.8 C 95 % 3.07 C
107 23-01-2021 09:50:00 3.9 C 95 % 3.17 C
108 23-01-2021 09:55:00 3.9 C 95 % 3.17 C
109 23-01-2021 10:00:00 3.8 C 95 % 3.07 C
110 23-01-2021 10:05:00 3.8 C 94 % 2.93 C
111 23-01-2021 10:10:00 3.8 C 94 % 2.93 C
112 23-01-2021 10:15:00 3.8 C 95 % 3.07 C
113 23-01-2021 10:20:00 3.8 C 95 % 3.07 C
114 23-01-2021 10:25:00 3.9 C 95 % 3.17 C
115 23-01-2021 10:30:00 4 C 95 % 3.27 C
116 23-01-2021 10:35:00 4.1 C 95 % 3.37 C
117 23-01-2021 10:40:00 4.1 C 95 % 3.37 C
118 23-01-2021 10:45:00 4.2 C 95 % 3.47 C
119 23-01-2021 10:50:00 4.3 C 95 % 3.57 C
120 23-01-2021 10:55:00 4.4 C 95 % 3.67 C
121 23-01-2021 11:00:00 4.6 C 95 % 3.87 C
122 23-01-2021 11:05:00 4.6 C 95 % 3.87 C
123 23-01-2021 11:10:00 4.7 C 95 % 3.97 C
124 23-01-2021 11:15:00 4.7 C 94 % 3.82 C
125 23-01-2021 11:20:00 4.8 C 94 % 3.92 C
Sensor: Nr:Datum:Temp:Feuchte:Taupunkt:
Aussen-T/F 126 23-01-2021 11:25:00 4.9 C 94 % 4.02 C
127 23-01-2021 11:30:00 4.9 C 93 % 3.87 C
128 23-01-2021 11:35:00 5 C 93 % 3.96 C
129 23-01-2021 11:40:00 5 C 93 % 3.96 C
130 23-01-2021 11:45:00 5 C 92 % 3.81 C
131 23-01-2021 11:50:00 5 C 91 % 3.66 C
132 23-01-2021 11:55:00 5.1 C 91 % 3.76 C
133 23-01-2021 12:00:00 5.1 C 91 % 3.76 C
134 23-01-2021 12:05:00 5.1 C 90 % 3.6 C
135 23-01-2021 12:10:00 5.2 C 89 % 3.54 C
136 23-01-2021 12:15:00 5.2 C 89 % 3.54 C
137 23-01-2021 12:20:00 5.3 C 89 % 3.64 C
138 23-01-2021 12:25:00 5.3 C 90 % 3.8 C
139 23-01-2021 12:30:00 5.3 C 90 % 3.8 C
140 23-01-2021 12:35:00 5.4 C 89 % 3.74 C
141 23-01-2021 12:40:00 5.4 C 89 % 3.74 C
142 23-01-2021 12:45:00 5.6 C 89 % 3.93 C
143 23-01-2021 12:50:00 5.6 C 88 % 3.77 C
144 23-01-2021 12:55:00 5.7 C 88 % 3.87 C
145 23-01-2021 13:00:00 5.8 C 87 % 3.81 C
146 23-01-2021 13:05:00 5.8 C 86 % 3.64 C
147 23-01-2021 13:10:00 5.8 C 86 % 3.64 C
148 23-01-2021 13:15:00 5.9 C 86 % 3.74 C
149 23-01-2021 13:20:00 5.9 C 86 % 3.74 C
150 23-01-2021 13:25:00 6 C 86 % 3.84 C
Sensor: Nr:Datum:Temp:Feuchte:Taupunkt:
Aussen-T/F 151 23-01-2021 13:30:00 6 C 85 % 3.67 C
152 23-01-2021 13:35:00 6 C 85 % 3.67 C
153 23-01-2021 13:40:00 6.1 C 86 % 3.94 C
154 23-01-2021 13:45:00 6.1 C 86 % 3.94 C
155 23-01-2021 13:50:00 6.1 C 86 % 3.94 C
156 23-01-2021 13:55:00 6.1 C 86 % 3.94 C
157 23-01-2021 14:00:00 6.1 C 86 % 3.94 C
158 23-01-2021 14:05:00 6.2 C 86 % 4.04 C
159 23-01-2021 14:10:00 6.2 C 86 % 4.04 C
160 23-01-2021 14:15:00 6.2 C 85 % 3.87 C
161 23-01-2021 14:20:00 6.2 C 86 % 4.04 C
162 23-01-2021 14:25:00 6.3 C 86 % 4.14 C
163 23-01-2021 14:30:00 6.3 C 86 % 4.14 C
164 23-01-2021 14:35:00 6.3 C 86 % 4.14 C
165 23-01-2021 14:40:00 6.3 C 85 % 3.97 C
166 23-01-2021 14:45:00 6.4 C 85 % 4.07 C
167 23-01-2021 14:50:00 6.4 C 85 % 4.07 C
168 23-01-2021 14:55:00 6.4 C 86 % 4.23 C
169 23-01-2021 15:00:00 6.4 C 86 % 4.23 C
170 23-01-2021 15:05:00 6.5 C 86 % 4.33 C
171 23-01-2021 15:10:00 6.4 C 84 % 3.9 C
172 23-01-2021 15:15:00 6.4 C 84 % 3.9 C
173 23-01-2021 15:20:00 6.4 C 84 % 3.9 C
174 23-01-2021 15:25:00 6.4 C 84 % 3.9 C
175 23-01-2021 15:30:00 6.5 C 85 % 4.17 C
Sensor: Nr:Datum:Temp:Feuchte:Taupunkt:
Aussen-T/F 176 23-01-2021 15:35:00 6.6 C 85 % 4.26 C
177 23-01-2021 15:40:00 6.5 C 84 % 4 C
178 23-01-2021 15:45:00 6.5 C 84 % 4 C
179 23-01-2021 15:50:00 6.6 C 85 % 4.26 C
180 23-01-2021 15:55:00 6.5 C 84 % 4 C
181 23-01-2021 16:00:00 6.4 C 84 % 3.9 C
182 23-01-2021 16:05:00 6.4 C 84 % 3.9 C
183 23-01-2021 16:10:00 6.3 C 85 % 3.97 C
184 23-01-2021 16:15:00 6.2 C 84 % 3.7 C
185 23-01-2021 16:20:00 6.2 C 85 % 3.87 C
186 23-01-2021 16:25:00 6.2 C 86 % 4.04 C
187 23-01-2021 16:30:00 6.1 C 86 % 3.94 C
188 23-01-2021 16:35:00 6 C 86 % 3.84 C
189 23-01-2021 16:40:00 5.9 C 86 % 3.74 C
190 23-01-2021 16:45:00 5.8 C 86 % 3.64 C
191 23-01-2021 16:50:00 5.8 C 87 % 3.81 C
192 23-01-2021 16:55:00 5.8 C 87 % 3.81 C
193 23-01-2021 17:00:00 5.7 C 87 % 3.71 C
194 23-01-2021 17:05:00 5.7 C 87 % 3.71 C
195 23-01-2021 17:10:00 5.6 C 88 % 3.77 C
196 23-01-2021 17:15:00 5.5 C 88 % 3.67 C
197 23-01-2021 17:20:00 5.4 C 88 % 3.58 C
198 23-01-2021 17:25:00 5.4 C 88 % 3.58 C
199 23-01-2021 17:30:00 5.4 C 88 % 3.58 C
200 23-01-2021 17:35:00 5.3 C 88 % 3.48 C
Sensor: Nr:Datum:Temp:Feuchte:Taupunkt:
Aussen-T/F 201 23-01-2021 17:40:00 5.3 C 88 % 3.48 C
202 23-01-2021 17:45:00 5.2 C 88 % 3.38 C
203 23-01-2021 17:50:00 5.2 C 88 % 3.38 C
204 23-01-2021 17:55:00 5.2 C 88 % 3.38 C
205 23-01-2021 18:00:00 5.1 C 88 % 3.28 C
206 23-01-2021 18:05:00 5.1 C 89 % 3.44 C

Legende:
   Min
   Max


Maximal/Minimal-Werte vom 23.01.2021 - 23.01.2021

Sensor Min Max Avg
Temp
(Aussen-T/F)
2.2 °C
23-01-2021  02:35:00
6.6 °C
23-01-2021  15:35:00
4.15 °C
Feuchte
(Aussen-T/F)
84 %
23-01-2021  15:10:00
97 %
23-01-2021  03:45:00
92.17 %
Taupunkt
(Aussen-T/F)
1.63 C
23-01-2021  02:35:00
4.33 C
23-01-2021  15:05:00
2.96 C

Die Daten stammen von einer Davis Vantage Pro 2 Wetter-Station und werden unter Linux mit der Software wview2wettercgi und aufbereitet. Alle Angaben erfolgen ohne Gewähr für ihre Vollständigkeit oder Richtigkeit.
Kontakt: Rainer Krienke krienke@uni-koblenz.de . Meine Webseiten an der Uni Koblenz oder privat.
Version: $Revision: 0.78 $